Time;durP1;ratioP1;P1;durP2;ratioP2;P2;SDS_P1;SDS_P2;PMS_P1;PMS_P2;Temp;Humidity;BMP_temperature;BMP_pressure;BME280_temperature;BME280_humidity;BME280_pressure;Samples;Min_cycle;Max_cycle;Signal;HPM_P1;HPM_P2
2023/05/29 00:00:17;;;;;;;14.38;2.53;;;;;;;;;;5102109;27;20082;-72
2023/05/29 00:02:44;;;;;;;17.70;2.95;;;;;;;;;;5105258;27;20044;-72
2023/05/29 00:05:12;;;;;;;15.52;3.20;;;;;;;;;;5108427;27;20047;-72
2023/05/29 00:07:39;;;;;;;19.17;2.75;;;;;;;;;;5102554;27;20056;-72
2023/05/29 00:10:06;;;;;;;19.13;3.28;;;;;;;;;;5102030;27;20179;-72
2023/05/29 00:12:32;;;;;;;19.45;3.13;;;;;;;;;;5086263;28;20492;-72
2023/05/29 00:14:58;;;;;;;38.72;4.75;;;;;;;;;;5102295;27;20154;-72
2023/05/29 00:17:25;;;;;;;17.10;2.75;;;;;;;;;;5098465;27;20091;-72
2023/05/29 00:19:51;;;;;;;23.15;3.50;;;;;;;;;;5138242;27;20043;-72
2023/05/29 00:22:17;;;;;;;16.33;2.78;;;;;;;;;;5105414;27;20595;-72
2023/05/29 00:24:43;;;;;;;19.48;3.75;;;;;;;;;;5105162;27;20043;-72
2023/05/29 00:27:10;;;;;;;15.50;2.70;;;;;;;;;;5103086;27;20097;-72
2023/05/29 00:29:37;;;;;;;17.38;3.10;;;;;;;;;;5110893;27;20414;-72
2023/05/29 00:32:05;;;;;;;20.20;3.22;;;;;;;;;;5110187;27;20154;-72
2023/05/29 00:34:32;;;;;;;13.48;2.75;;;;;;;;;;5108510;27;20043;-72
2023/05/29 00:36:58;;;;;;;13.27;2.65;;;;;;;;;;5113314;27;20608;-72
2023/05/29 00:39:24;;;;;;;15.10;2.78;;;;;;;;;;5103160;27;20043;-72
2023/05/29 00:41:51;;;;;;;15.45;2.83;;;;;;;;;;5096371;27;21253;-72
2023/05/29 00:44:18;;;;;;;15.20;2.45;;;;;;;;;;5094543;27;20058;-72
2023/05/29 00:46:45;;;;;;;16.08;2.80;;;;;;;;;;5102505;27;20080;-72
2023/05/29 00:49:12;;;;;;;17.90;4.07;;;;;;;;;;5104971;27;20078;-72
2023/05/29 00:51:38;;;;;;;19.15;2.75;;;;;;;;;;5116289;27;20043;-72
2023/05/29 00:54:07;;;;;;;15.25;3.40;;;;;;;;;;5103506;27;20090;-72
2023/05/29 00:56:35;;;;;;;15.88;3.03;;;;;;;;;;5098555;27;20506;-72
2023/05/29 00:59:01;;;;;;;20.33;3.55;;;;;;;;;;5100879;27;20050;-72
2023/05/29 01:01:28;;;;;;;14.63;3.58;;;;;;;;;;5102144;27;20597;-72
2023/05/29 01:03:57;;;;;;;16.98;3.40;;;;;;;;;;5100201;28;20092;-72
2023/05/29 01:06:23;;;;;;;16.10;2.72;;;;;;;;;;5101965;27;20478;-72
2023/05/29 01:08:49;;;;;;;14.20;3.00;;;;;;;;;;5098940;27;20370;-72
2023/05/29 01:11:23;;;;;;;16.00;3.17;;;;;;;;;;5098532;27;20050;-72
2023/05/29 01:13:50;;;;;;;17.35;2.72;;;;;;;;;;5098267;27;20051;-72
2023/05/29 01:16:21;;;;;;;12.15;2.35;;;;;;;;;;5096773;27;20151;-72
2023/05/29 01:18:52;;;;;;;14.55;2.38;;;;;;;;;;5098879;27;20047;-72
2023/05/29 01:21:20;;;;;;;14.10;2.63;;;;;;;;;;5096948;27;20368;-72
2023/05/29 01:23:47;;;;;;;14.20;3.47;;;;;;;;;;5128608;27;20491;-72
2023/05/29 01:26:25;;;;;;;19.88;3.42;;;;;;;;;;5091572;28;21720;-72
2023/05/29 01:28:52;;;;;;;11.35;2.80;;;;;;;;;;5098007;27;20122;-72
2023/05/29 01:31:21;;;;;;;16.65;3.05;;;;;;;;;;5098330;28;20048;-72
2023/05/29 01:33:54;;;;;;;17.10;2.80;;;;;;;;;;5098870;27;20407;-72
2023/05/29 01:36:20;;;;;;;24.90;4.63;;;;;;;;;;5111859;27;20051;-72
2023/05/29 01:38:47;;;;;;;16.60;3.20;;;;;;;;;;5101107;27;20177;-72
2023/05/29 01:41:15;;;;;;;17.27;4.30;;;;;;;;;;5101189;27;20972;-72
2023/05/29 01:43:41;;;;;;;15.55;3.33;;;;;;;;;;5099823;28;20441;-72
2023/05/29 01:46:07;;;;;;;17.63;2.95;;;;;;;;;;5104612;27;20139;-72
2023/05/29 01:48:34;;;;;;;17.67;3.67;;;;;;;;;;5108572;28;20042;-72
2023/05/29 01:51:00;;;;;;;13.00;2.72;;;;;;;;;;5103817;28;20039;-72
2023/05/29 01:53:26;;;;;;;15.52;3.63;;;;;;;;;;5096607;27;20047;-72
2023/05/29 01:55:53;;;;;;;16.77;3.40;;;;;;;;;;5096243;28;20070;-72
2023/05/29 01:58:21;;;;;;;13.10;3.10;;;;;;;;;;5126862;27;20082;-72
2023/05/29 02:00:47;;;;;;;17.13;2.90;;;;;;;;;;5096892;28;20061;-72
2023/05/29 02:03:13;;;;;;;18.60;3.95;;;;;;;;;;5099317;28;20039;-72
2023/05/29 02:05:39;;;;;;;12.63;3.30;;;;;;;;;;5096431;28;20177;-72
2023/05/29 02:08:05;;;;;;;27.98;6.25;;;;;;;;;;5138998;27;20073;-72
2023/05/29 02:10:31;;;;;;;14.00;3.40;;;;;;;;;;5102470;28;20056;-72
2023/05/29 02:12:58;;;;;;;16.35;3.00;;;;;;;;;;5102895;28;20100;-72
2023/05/29 02:15:24;;;;;;;17.33;3.33;;;;;;;;;;5097785;28;20082;-72
2023/05/29 02:17:51;;;;;;;18.90;3.63;;;;;;;;;;5098827;28;20432;-72
2023/05/29 02:20:17;;;;;;;16.33;2.85;;;;;;;;;;5123580;27;20075;-72
2023/05/29 02:22:45;;;;;;;18.50;4.15;;;;;;;;;;5103816;28;20050;-72
2023/05/29 02:25:11;;;;;;;15.95;2.40;;;;;;;;;;5104683;28;20115;-72
2023/05/29 02:27:37;;;;;;;19.23;3.53;;;;;;;;;;5105272;28;20562;-72
2023/05/29 02:30:05;;;;;;;10.30;2.58;;;;;;;;;;5106066;28;20048;-72
2023/05/29 02:32:31;;;;;;;14.38;2.70;;;;;;;;;;5099038;27;20097;-72
2023/05/29 02:34:58;;;;;;;19.17;3.15;;;;;;;;;;5102873;27;20579;-72
2023/05/29 02:37:25;;;;;;;17.83;4.25;;;;;;;;;;5088056;27;20050;-72
2023/05/29 02:39:52;;;;;;;18.35;3.15;;;;;;;;;;5104714;27;20048;-72
2023/05/29 02:42:18;;;;;;;14.45;2.58;;;;;;;;;;5108936;27;20124;-72
2023/05/29 02:44:44;;;;;;;17.95;4.07;;;;;;;;;;5104329;27;20036;-72
2023/05/29 02:47:10;;;;;;;14.00;2.95;;;;;;;;;;5106079;27;20441;-72
2023/05/29 02:49:36;;;;;;;17.27;3.15;;;;;;;;;;5103499;27;20047;-72
2023/05/29 02:52:03;;;;;;;16.23;2.53;;;;;;;;;;5118417;27;20412;-72
2023/05/29 02:54:29;;;;;;;25.10;2.70;;;;;;;;;;5103577;27;20352;-72
2023/05/29 02:56:55;;;;;;;14.57;4.00;;;;;;;;;;5103752;27;20051;-72
2023/05/29 02:59:21;;;;;;;14.15;2.42;;;;;;;;;;5102382;27;20039;-72
2023/05/29 03:01:48;;;;;;;15.50;3.15;;;;;;;;;;5104334;27;20479;-72
2023/05/29 03:04:15;;;;;;;7.88;2.20;;;;;;;;;;5103105;27;20047;-72
2023/05/29 03:06:41;;;;;;;14.82;3.33;;;;;;;;;;5105358;27;20119;-72
2023/05/29 03:09:07;;;;;;;15.95;3.10;;;;;;;;;;5117487;27;20135;-72
2023/05/29 03:11:35;;;;;;;16.67;3.13;;;;;;;;;;5105502;27;20055;-72
2023/05/29 03:14:02;;;;;;;14.27;2.30;;;;;;;;;;5102141;27;20128;-72
2023/05/29 03:16:29;;;;;;;13.23;2.33;;;;;;;;;;5101341;27;20187;-72
2023/05/29 03:18:55;;;;;;;15.15;3.05;;;;;;;;;;5101314;27;20051;-72
2023/05/29 03:21:21;;;;;;;21.30;3.33;;;;;;;;;;5099155;27;20463;-72
2023/05/29 03:23:48;;;;;;;20.08;3.08;;;;;;;;;;5100297;27;20562;-72
2023/05/29 03:26:14;;;;;;;16.80;2.67;;;;;;;;;;5100865;27;20399;-72
2023/05/29 03:28:40;;;;;;;12.85;2.50;;;;;;;;;;5100890;27;20056;-72
2023/05/29 03:31:08;;;;;;;13.02;3.00;;;;;;;;;;5107453;27;20054;-72
2023/05/29 03:33:35;;;;;;;12.77;2.97;;;;;;;;;;5107808;27;21055;-72
2023/05/29 03:36:02;;;;;;;14.13;2.60;;;;;;;;;;5106019;27;20039;-72
2023/05/29 03:38:28;;;;;;;13.57;2.38;;;;;;;;;;5134010;27;20052;-72
2023/05/29 03:40:54;;;;;;;12.65;2.55;;;;;;;;;;5128346;27;20391;-72
2023/05/29 03:43:21;;;;;;;15.75;3.75;;;;;;;;;;5107504;27;20108;-72
2023/05/29 03:45:47;;;;;;;12.63;3.00;;;;;;;;;;5139291;27;20181;-72
2023/05/29 03:48:14;;;;;;;16.48;2.72;;;;;;;;;;5105602;27;20517;-72
2023/05/29 03:50:41;;;;;;;11.95;2.38;;;;;;;;;;5103801;27;20044;-72
2023/05/29 03:53:07;;;;;;;18.77;2.90;;;;;;;;;;5105177;27;20082;-72
2023/05/29 03:55:33;;;;;;;16.00;3.00;;;;;;;;;;5104764;27;20095;-72
2023/05/29 03:57:59;;;;;;;19.88;4.82;;;;;;;;;;5110071;27;20092;-72
2023/05/29 04:00:26;;;;;;;12.73;2.85;;;;;;;;;;5108634;27;20067;-72
2023/05/29 04:02:52;;;;;;;11.32;2.20;;;;;;;;;;5102763;27;20103;-72
2023/05/29 04:05:18;;;;;;;13.15;2.30;;;;;;;;;;5114321;27;21043;-72
2023/05/29 04:07:44;;;;;;;13.88;2.67;;;;;;;;;;5102322;27;20091;-72
2023/05/29 04:10:10;;;;;;;14.43;2.40;;;;;;;;;;5101328;27;20124;-72
2023/05/29 04:12:37;;;;;;;21.90;2.75;;;;;;;;;;5104111;27;20039;-72
2023/05/29 04:15:03;;;;;;;14.50;3.08;;;;;;;;;;5125014;27;20051;-72
2023/05/29 04:17:29;;;;;;;13.55;2.50;;;;;;;;;;5107000;27;20066;-72
2023/05/29 04:19:55;;;;;;;13.38;2.50;;;;;;;;;;5103958;27;20105;-72
2023/05/29 04:22:22;;;;;;;13.40;2.95;;;;;;;;;;5088705;27;20049;-72
2023/05/29 04:24:48;;;;;;;14.90;2.90;;;;;;;;;;5105306;27;20096;-72
2023/05/29 04:27:14;;;;;;;15.10;2.67;;;;;;;;;;5098697;27;20058;-72
2023/05/29 04:29:42;;;;;;;12.43;2.92;;;;;;;;;;5089019;27;20892;-72
2023/05/29 04:32:10;;;;;;;16.23;3.03;;;;;;;;;;5104038;27;20051;-72
2023/05/29 04:34:36;;;;;;;13.50;3.08;;;;;;;;;;5111287;27;20050;-72
2023/05/29 04:37:03;;;;;;;13.45;2.83;;;;;;;;;;5112419;27;20055;-72
2023/05/29 04:39:29;;;;;;;15.18;2.85;;;;;;;;;;5101234;27;20093;-71
2023/05/29 04:41:58;;;;;;;13.10;2.88;;;;;;;;;;5100511;27;20039;-71
2023/05/29 04:44:26;;;;;;;15.73;2.97;;;;;;;;;;5100594;27;20058;-71
2023/05/29 04:46:52;;;;;;;21.67;2.72;;;;;;;;;;5102786;27;20051;-71
2023/05/29 04:49:18;;;;;;;18.20;3.85;;;;;;;;;;5112282;27;20071;-71
2023/05/29 04:51:46;;;;;;;20.25;3.22;;;;;;;;;;5108963;27;20046;-72
2023/05/29 04:54:12;;;;;;;10.90;2.42;;;;;;;;;;5098598;27;20126;-72
2023/05/29 04:56:39;;;;;;;12.77;2.50;;;;;;;;;;5099578;28;20039;-72
2023/05/29 04:59:07;;;;;;;12.15;2.13;;;;;;;;;;5098087;28;20104;-72
2023/05/29 05:01:33;;;;;;;17.67;3.53;;;;;;;;;;5101858;27;20063;-72
2023/05/29 05:04:00;;;;;;;14.90;2.53;;;;;;;;;;5102993;28;20055;-72
2023/05/29 05:06:26;;;;;;;19.75;2.35;;;;;;;;;;5102185;27;20043;-72
2023/05/29 05:08:53;;;;;;;13.80;2.70;;;;;;;;;;5097164;28;20051;-72
2023/05/29 05:11:20;;;;;;;11.77;2.10;;;;;;;;;;5107748;27;20055;-72
2023/05/29 05:13:46;;;;;;;21.58;3.42;;;;;;;;;;5092889;27;20059;-73
2023/05/29 05:16:13;;;;;;;10.55;2.35;;;;;;;;;;5095973;28;20047;-72
2023/05/29 05:18:39;;;;;;;12.52;2.95;;;;;;;;;;5097794;27;20433;-72
2023/05/29 05:21:06;;;;;;;22.90;3.53;;;;;;;;;;5094345;28;20067;-70
2023/05/29 05:23:32;;;;;;;10.77;3.25;;;;;;;;;;5081417;27;20052;-71
2023/05/29 05:25:58;;;;;;;13.20;3.25;;;;;;;;;;5095600;28;20104;-72
2023/05/29 05:28:25;;;;;;;14.63;3.08;;;;;;;;;;5099984;28;20146;-71
2023/05/29 05:30:51;;;;;;;14.63;3.08;;;;;;;;;;5131300;27;20055;-72
2023/05/29 05:33:17;;;;;;;14.35;3.13;;;;;;;;;;5097420;28;20081;-71
2023/05/29 05:35:44;;;;;;;9.60;2.20;;;;;;;;;;5095421;28;20051;-72
2023/05/29 05:38:10;;;;;;;15.32;3.47;;;;;;;;;;5095609;27;20047;-72
2023/05/29 05:40:36;;;;;;;14.55;2.75;;;;;;;;;;5109117;27;20211;-72
2023/05/29 05:43:02;;;;;;;19.65;3.38;;;;;;;;;;5125222;27;21044;-72
2023/05/29 05:45:28;;;;;;;23.15;3.30;;;;;;;;;;5091705;28;20165;-72
2023/05/29 05:47:55;;;;;;;15.10;3.00;;;;;;;;;;5127422;27;20047;-72
2023/05/29 05:50:21;;;;;;;16.75;4.03;;;;;;;;;;5091343;27;20071;-72
2023/05/29 05:52:48;;;;;;;17.77;3.13;;;;;;;;;;5072791;28;20506;-71
2023/05/29 05:55:14;;;;;;;15.48;2.90;;;;;;;;;;5094248;28;20063;-72
2023/05/29 05:57:40;;;;;;;12.40;3.00;;;;;;;;;;5096530;28;20077;-73
2023/05/29 06:00:11;;;;;;;20.88;4.72;;;;;;;;;;5135545;27;20044;-72
2023/05/29 06:02:37;;;;;;;15.82;3.40;;;;;;;;;;5123261;27;20036;-73
2023/05/29 06:05:04;;;;;;;15.20;2.40;;;;;;;;;;5104520;28;20046;-72
2023/05/29 06:07:30;;;;;;;17.35;2.95;;;;;;;;;;5105889;27;20044;-73
2023/05/29 06:09:56;;;;;;;19.38;2.85;;;;;;;;;;5091590;27;20044;-72
2023/05/29 06:12:22;;;;;;;16.33;3.25;;;;;;;;;;5107897;27;20797;-73
2023/05/29 06:14:48;;;;;;;14.25;3.33;;;;;;;;;;5106949;27;20146;-72
2023/05/29 06:17:15;;;;;;;15.48;3.53;;;;;;;;;;5106695;27;20040;-72
2023/05/29 06:19:41;;;;;;;16.75;3.58;;;;;;;;;;5103492;27;20047;-72
2023/05/29 06:22:08;;;;;;;19.30;3.58;;;;;;;;;;5106264;27;20376;-72
2023/05/29 06:24:34;;;;;;;13.60;3.42;;;;;;;;;;5107231;27;20421;-72
2023/05/29 06:27:01;;;;;;;13.40;3.10;;;;;;;;;;5105065;27;20055;-72
2023/05/29 06:29:27;;;;;;;15.45;3.28;;;;;;;;;;5141464;27;20054;-73
2023/05/29 06:31:53;;;;;;;16.25;3.47;;;;;;;;;;5107135;27;20044;-72
2023/05/29 06:34:19;;;;;;;19.00;3.50;;;;;;;;;;5107242;27;20443;-73
2023/05/29 06:36:46;;;;;;;14.40;3.35;;;;;;;;;;5106094;27;20062;-73
2023/05/29 06:39:15;;;;;;;19.05;3.83;;;;;;;;;;5106005;27;20066;-73
2023/05/29 06:41:41;;;;;;;16.88;4.13;;;;;;;;;;5106912;27;20040;-73
2023/05/29 06:44:07;;;;;;;20.42;4.68;;;;;;;;;;5090761;27;20043;-72
2023/05/29 06:46:33;;;;;;;22.30;4.70;;;;;;;;;;5105956;27;20035;-73
2023/05/29 06:48:59;;;;;;;20.02;4.97;;;;;;;;;;5120613;27;20388;-72
2023/05/29 06:51:26;;;;;;;23.30;3.72;;;;;;;;;;5107610;27;20067;-73
2023/05/29 06:53:52;;;;;;;24.75;4.30;;;;;;;;;;5106146;27;20046;-72
2023/05/29 06:56:18;;;;;;;22.90;4.75;;;;;;;;;;5107181;27;20114;-74
2023/05/29 06:58:45;;;;;;;18.63;4.45;;;;;;;;;;5107689;27;20039;-73
2023/05/29 07:01:11;;;;;;;20.63;5.15;;;;;;;;;;5106011;27;21201;-73
2023/05/29 07:03:37;;;;;;;20.35;3.55;;;;;;;;;;5105620;27;20557;-73
2023/05/29 07:06:04;;;;;;;16.48;3.70;;;;;;;;;;5118180;27;20043;-72
2023/05/29 07:08:30;;;;;;;15.95;3.67;;;;;;;;;;5109226;27;20321;-73
2023/05/29 07:10:56;;;;;;;19.65;3.88;;;;;;;;;;5089444;27;20043;-73
2023/05/29 07:13:25;;;;;;;21.80;4.07;;;;;;;;;;5139677;27;20070;-73
2023/05/29 07:15:51;;;;;;;19.58;4.10;;;;;;;;;;5106715;27;20051;-73
2023/05/29 07:18:18;;;;;;;18.02;4.05;;;;;;;;;;5105702;27;20044;-73
2023/05/29 07:20:44;;;;;;;21.52;4.15;;;;;;;;;;5106053;27;20366;-74
2023/05/29 07:23:10;;;;;;;21.08;4.43;;;;;;;;;;5107744;27;20130;-74
2023/05/29 07:25:36;;;;;;;18.67;3.22;;;;;;;;;;5106124;27;20513;-74
2023/05/29 07:28:02;;;;;;;16.60;3.80;;;;;;;;;;5105406;27;20120;-73
2023/05/29 07:30:29;;;;;;;17.48;3.45;;;;;;;;;;5105958;27;20054;-73
2023/05/29 07:32:55;;;;;;;23.38;4.63;;;;;;;;;;5108213;27;20134;-73
2023/05/29 07:35:21;;;;;;;21.23;3.88;;;;;;;;;;5110042;27;20042;-73
2023/05/29 07:37:49;;;;;;;22.73;4.25;;;;;;;;;;5103296;27;20107;-73
2023/05/29 07:40:15;;;;;;;19.17;3.22;;;;;;;;;;5108047;27;20391;-73
2023/05/29 07:42:42;;;;;;;14.38;3.63;;;;;;;;;;5105922;27;20048;-73
2023/05/29 07:45:08;;;;;;;20.48;4.63;;;;;;;;;;5105610;27;20709;-73
2023/05/29 07:47:34;;;;;;;13.93;3.83;;;;;;;;;;5105320;27;20196;-80
2023/05/29 07:50:00;;;;;;;22.50;4.43;;;;;;;;;;5105194;27;20046;-76
2023/05/29 07:52:26;;;;;;;18.05;3.67;;;;;;;;;;5108970;27;20124;-72
2023/05/29 07:54:53;;;;;;;18.65;3.80;;;;;;;;;;5109681;27;20046;-79
2023/05/29 07:57:20;;;;;;;18.75;4.22;;;;;;;;;;5105536;27;20054;-80
2023/05/29 07:59:49;;;;;;;16.90;4.00;;;;;;;;;;5105130;27;20044;-80
2023/05/29 08:02:16;;;;;;;17.95;4.25;;;;;;;;;;5102794;27;20184;-76
2023/05/29 08:04:42;;;;;;;20.40;4.32;;;;;;;;;;5110893;27;20051;-82
2023/05/29 08:07:08;;;;;;;18.77;4.53;;;;;;;;;;5107317;27;20177;-78
2023/05/29 08:09:35;;;;;;;19.88;4.55;;;;;;;;;;5105475;27;20071;-79
2023/05/29 08:12:02;;;;;;;25.85;6.18;;;;;;;;;;5102266;27;20043;-79
2023/05/29 08:14:29;;;;;;;21.58;4.03;;;;;;;;;;5109814;27;20471;-79
2023/05/29 08:16:55;;;;;;;19.85;3.72;;;;;;;;;;5104374;27;20058;-79
2023/05/29 08:19:21;;;;;;;16.10;3.83;;;;;;;;;;5106137;27;20498;-80
2023/05/29 08:21:47;;;;;;;16.83;4.45;;;;;;;;;;5110898;27;20031;-78
2023/05/29 08:24:14;;;;;;;40.55;7.00;;;;;;;;;;5120524;27;20045;-79
2023/05/29 08:26:40;;;;;;;17.00;3.97;;;;;;;;;;5117908;27;20050;-79
2023/05/29 08:29:06;;;;;;;14.27;3.70;;;;;;;;;;5106705;27;20371;-79
2023/05/29 08:31:32;;;;;;;19.08;3.88;;;;;;;;;;5100996;27;20055;-78
2023/05/29 08:33:58;;;;;;;25.77;4.72;;;;;;;;;;5104568;27;20054;-79
2023/05/29 08:36:26;;;;;;;22.27;4.22;;;;;;;;;;5099424;27;20048;-79
2023/05/29 08:38:52;;;;;;;20.23;4.18;;;;;;;;;;5104658;27;20780;-81
2023/05/29 08:41:22;;;;;;;23.63;4.90;;;;;;;;;;5089285;27;20043;-81
2023/05/29 08:43:50;;;;;;;17.55;3.70;;;;;;;;;;5105149;27;20398;-81
2023/05/29 08:46:19;;;;;;;16.02;4.25;;;;;;;;;;5103130;27;20118;-81
2023/05/29 08:48:48;;;;;;;19.65;4.25;;;;;;;;;;5105059;27;20043;-80
2023/05/29 08:51:15;;;;;;;18.02;4.05;;;;;;;;;;5105472;27;20039;-81
2023/05/29 08:53:41;;;;;;;20.80;3.85;;;;;;;;;;5105458;27;20097;-81
2023/05/29 08:56:08;;;;;;;16.30;3.97;;;;;;;;;;5104939;27;20117;-75
2023/05/29 08:58:34;;;;;;;17.55;3.83;;;;;;;;;;5104287;27;20540;-74
2023/05/29 09:01:02;;;;;;;20.60;3.95;;;;;;;;;;5105854;27;20027;-77
2023/05/29 09:03:28;;;;;;;17.30;3.92;;;;;;;;;;5104533;27;20616;-71
2023/05/29 09:05:59;;;;;;;17.73;4.20;;;;;;;;;;5106287;27;20382;-71
2023/05/29 09:08:27;;;;;;;18.08;4.32;;;;;;;;;;5105055;27;20065;-72
2023/05/29 09:10:53;;;;;;;19.75;4.38;;;;;;;;;;5104049;27;20040;-72
2023/05/29 09:13:19;;;;;;;23.23;4.22;;;;;;;;;;5106391;28;20047;-72
2023/05/29 09:15:47;;;;;;;22.02;4.80;;;;;;;;;;5103435;27;20067;-71
2023/05/29 09:18:13;;;;;;;17.35;4.28;;;;;;;;;;5105568;27;20047;-72
2023/05/29 09:20:39;;;;;;;23.10;4.28;;;;;;;;;;5089480;28;20055;-72
2023/05/29 09:23:06;;;;;;;23.10;4.75;;;;;;;;;;5103393;27;20126;-70
2023/05/29 09:25:35;;;;;;;15.38;3.50;;;;;;;;;;5104215;27;20768;-75
2023/05/29 09:28:02;;;;;;;21.65;3.42;;;;;;;;;;5105266;27;20135;-75
2023/05/29 09:30:34;;;;;;;24.15;4.13;;;;;;;;;;5109895;27;20059;-76
2023/05/29 09:33:01;;;;;;;22.77;3.90;;;;;;;;;;5105884;27;20047;-76
2023/05/29 09:35:35;;;;;;;17.38;3.65;;;;;;;;;;5103414;28;20084;-76
2023/05/29 09:38:02;;;;;;;25.42;4.55;;;;;;;;;;5103303;27;20058;-76
2023/05/29 09:40:33;;;;;;;19.73;3.90;;;;;;;;;;5103313;28;20123;-76
2023/05/29 09:43:10;;;;;;;22.58;4.07;;;;;;;;;;5113326;27;20052;-76
2023/05/29 09:45:38;;;;;;;18.63;4.07;;;;;;;;;;5103014;28;20035;-76
2023/05/29 09:48:05;;;;;;;17.50;3.75;;;;;;;;;;5104944;28;20074;-76
2023/05/29 09:50:33;;;;;;;31.50;5.50;;;;;;;;;;5102561;28;20039;-76
2023/05/29 09:53:01;;;;;;;17.30;3.83;;;;;;;;;;5104088;28;20043;-76
2023/05/29 09:55:28;;;;;;;16.05;3.85;;;;;;;;;;5104316;28;20087;-76
2023/05/29 09:57:55;;;;;;;15.75;3.83;;;;;;;;;;5103108;28;20075;-76
2023/05/29 10:00:23;;;;;;;21.90;3.85;;;;;;;;;;5104358;28;20048;-76
2023/05/29 10:02:49;;;;;;;17.77;5.10;;;;;;;;;;5106045;28;20054;-76
2023/05/29 10:05:16;;;;;;;19.00;4.03;;;;;;;;;;5135290;27;20204;-83
2023/05/29 10:07:46;;;;;;;21.20;4.15;;;;;;;;;;5103326;28;20126;-83
2023/05/29 10:10:14;;;;;;;20.30;4.32;;;;;;;;;;5102655;28;20036;-82
2023/05/29 10:12:44;;;;;;;17.48;3.72;;;;;;;;;;5103302;28;20115;-83
2023/05/29 10:15:14;;;;;;;17.63;4.03;;;;;;;;;;5102666;28;20403;-82
2023/05/29 10:17:43;;;;;;;13.02;3.88;;;;;;;;;;5102471;28;20402;-83
2023/05/29 10:20:10;;;;;;;18.42;3.22;;;;;;;;;;5102701;28;20126;-82
2023/05/29 10:22:40;;;;;;;16.73;3.45;;;;;;;;;;5105203;28;20047;-83
2023/05/29 10:25:08;;;;;;;14.18;3.85;;;;;;;;;;5103093;27;20477;-83
2023/05/29 10:27:34;;;;;;;22.35;3.67;;;;;;;;;;5085632;28;20056;-82
2023/05/29 10:30:05;;;;;;;18.05;4.35;;;;;;;;;;5118056;27;20478;-83
2023/05/29 10:32:40;;;;;;;15.95;3.15;;;;;;;;;;5102424;28;20444;-83
2023/05/29 10:35:10;;;;;;;17.88;3.83;;;;;;;;;;5135139;27;20145;-81
2023/05/29 10:37:37;;;;;;;17.27;3.70;;;;;;;;;;5105126;28;20040;-81
2023/05/29 10:40:05;;;;;;;16.98;3.53;;;;;;;;;;5103896;28;20051;-82
2023/05/29 10:42:48;;;;;;;20.15;4.38;;;;;;;;;;5102123;28;20160;-81
2023/05/29 10:45:31;;;;;;;16.42;3.33;;;;;;;;;;5137191;27;20047;-75
2023/05/29 10:48:17;;;;;;;14.65;3.92;;;;;;;;;;5104469;28;20056;-81
2023/05/29 10:50:43;;;;;;;16.15;4.38;;;;;;;;;;5104368;28;20112;-81
2023/05/29 10:53:10;;;;;;;17.23;4.13;;;;;;;;;;5104026;27;20059;-75
2023/05/29 10:55:37;;;;;;;20.05;3.95;;;;;;;;;;5110456;27;20331;-82
2023/05/29 10:58:24;;;;;;;15.00;3.17;;;;;;;;;;5109913;27;20387;-82
2023/05/29 11:00:50;;;;;;;14.25;3.47;;;;;;;;;;5136557;27;20047;-82
2023/05/29 11:03:22;;;;;;;12.90;3.25;;;;;;;;;;5106198;27;20043;-82
2023/05/29 11:05:57;;;;;;;16.67;3.87;;;;;;;;;;5105814;27;20055;-81
2023/05/29 11:08:33;;;;;;;18.10;4.45;;;;;;;;;;5106021;27;20040;-82
2023/05/29 11:11:00;;;;;;;18.77;4.30;;;;;;;;;;5106311;27;20659;-82
2023/05/29 11:13:27;;;;;;;18.98;3.17;;;;;;;;;;5105775;27;20051;-82
2023/05/29 11:16:13;;;;;;;13.50;3.10;;;;;;;;;;5105812;27;20122;-82
2023/05/29 11:18:40;;;;;;;11.48;3.65;;;;;;;;;;5106570;27;20604;-82
2023/05/29 11:21:13;;;;;;;13.95;3.33;;;;;;;;;;5107513;27;20135;-82
2023/05/29 11:23:43;;;;;;;13.05;3.22;;;;;;;;;;5090527;28;20486;-82
2023/05/29 11:26:09;;;;;;;13.38;3.13;;;;;;;;;;5108142;27;20162;-82
2023/05/29 11:28:37;;;;;;;14.93;3.20;;;;;;;;;;5090273;28;20511;-82
2023/05/29 11:31:08;;;;;;;15.52;3.13;;;;;;;;;;5141472;27;20522;-83
2023/05/29 11:33:41;;;;;;;15.57;4.07;;;;;;;;;;5108630;27;20072;-82
2023/05/29 11:36:09;;;;;;;12.93;2.90;;;;;;;;;;5118519;27;20035;-82
2023/05/29 11:38:36;;;;;;;8.63;3.35;;;;;;;;;;5107931;27;20225;-82
2023/05/29 11:41:03;;;;;;;15.63;3.25;;;;;;;;;;5104679;27;20047;-83
2023/05/29 11:43:29;;;;;;;11.73;2.92;;;;;;;;;;5106996;27;20047;-83
2023/05/29 11:45:55;;;;;;;17.65;3.58;;;;;;;;;;5107657;27;20083;-83
2023/05/29 11:48:23;;;;;;;11.00;3.17;;;;;;;;;;5096195;27;20156;-83
2023/05/29 11:50:49;;;;;;;11.48;2.85;;;;;;;;;;5107294;27;20174;-83
2023/05/29 11:53:16;;;;;;;11.90;2.92;;;;;;;;;;5106785;27;20134;-83
2023/05/29 11:55:42;;;;;;;11.00;2.88;;;;;;;;;;5106518;27;20092;-83
2023/05/29 11:58:08;;;;;;;16.98;3.35;;;;;;;;;;5105910;27;20035;-83
2023/05/29 12:00:35;;;;;;;14.98;3.72;;;;;;;;;;5103642;27;20092;-83
2023/05/29 12:03:03;;;;;;;17.83;3.45;;;;;;;;;;5103704;27;20055;-83
2023/05/29 12:05:30;;;;;;;14.10;3.20;;;;;;;;;;5104251;27;20147;-83
2023/05/29 12:07:57;;;;;;;12.38;2.90;;;;;;;;;;5104788;27;20566;-83
2023/05/29 12:10:23;;;;;;;14.55;2.70;;;;;;;;;;5106111;27;20050;-83
2023/05/29 12:12:52;;;;;;;9.80;2.83;;;;;;;;;;5105361;27;20078;-83
2023/05/29 12:15:18;;;;;;;17.88;4.22;;;;;;;;;;5138565;27;20093;-83
2023/05/29 12:17:45;;;;;;;14.55;3.03;;;;;;;;;;5089022;27;20093;-76
2023/05/29 12:20:13;;;;;;;10.57;3.55;;;;;;;;;;5106918;27;20063;-79
2023/05/29 12:22:40;;;;;;;21.08;4.40;;;;;;;;;;5106096;27;20044;-79
2023/05/29 12:25:07;;;;;;;14.75;3.55;;;;;;;;;;5106237;27;20110;-79
2023/05/29 12:27:41;;;;;;;13.35;2.67;;;;;;;;;;5103488;27;20513;-79
2023/05/29 12:30:08;;;;;;;10.15;2.70;;;;;;;;;;5102333;27;20058;-79
2023/05/29 12:32:41;;;;;;;10.70;2.55;;;;;;;;;;5103607;27;20092;-76
2023/05/29 12:35:12;;;;;;;17.88;2.80;;;;;;;;;;5107288;27;20040;-72
2023/05/29 12:37:45;;;;;;;10.88;2.72;;;;;;;;;;5097024;27;20471;-77
2023/05/29 12:40:11;;;;;;;;;;;;;;;;;;5105223;27;20043;-81
2023/05/29 12:42:38;;;;;;;9.73;3.15;;;;;;;;;;5104873;27;19923;-81
2023/05/29 12:45:06;;;;;;;11.50;2.92;;;;;;;;;;5102516;27;20084;-82
2023/05/29 12:47:32;;;;;;;10.68;2.67;;;;;;;;;;5104822;27;20086;-81
2023/05/29 12:49:59;;;;;;;14.40;3.45;;;;;;;;;;5103253;27;20036;-82
2023/05/29 12:52:25;;;;;;;9.30;2.55;;;;;;;;;;5112506;27;20047;-82
2023/05/29 12:54:51;;;;;;;11.90;3.38;;;;;;;;;;5105282;27;20058;-81
2023/05/29 12:57:18;;;;;;;9.85;2.70;;;;;;;;;;5136292;27;20070;-82
2023/05/29 12:59:44;;;;;;;10.75;2.90;;;;;;;;;;5087977;27;20047;-82
2023/05/29 13:02:10;;;;;;;12.48;3.05;;;;;;;;;;5106721;27;20141;-83
2023/05/29 13:04:36;;;;;;;11.82;2.83;;;;;;;;;;5106379;27;20413;-83
2023/05/29 13:07:03;;;;;;;10.63;2.38;;;;;;;;;;5105175;27;20459;-83
2023/05/29 13:09:29;;;;;;;14.90;4.25;;;;;;;;;;5109159;27;20488;-83
2023/05/29 13:11:55;;;;;;;13.95;3.10;;;;;;;;;;5097119;27;20180;-84
2023/05/29 13:14:22;;;;;;;14.05;3.08;;;;;;;;;;5098392;27;20505;-83
2023/05/29 13:16:48;;;;;;;15.05;3.75;;;;;;;;;;5086994;28;20051;-83
2023/05/29 13:19:14;;;;;;;13.90;3.15;;;;;;;;;;5111063;27;20189;-83
2023/05/29 13:21:47;;;;;;;15.52;3.17;;;;;;;;;;5102102;27;20075;-83
2023/05/29 13:24:13;;;;;;;13.90;3.40;;;;;;;;;;5104490;27;20100;-83
2023/05/29 13:26:39;;;;;;;12.25;3.30;;;;;;;;;;5105723;27;20039;-84
2023/05/29 13:29:06;;;;;;;12.32;2.67;;;;;;;;;;5102361;27;20051;-79
2023/05/29 13:31:32;;;;;;;13.68;3.13;;;;;;;;;;5099445;27;20471;-79
2023/05/29 13:33:58;;;;;;;12.75;2.75;;;;;;;;;;5099307;27;20039;-77
2023/05/29 13:36:24;;;;;;;11.27;2.85;;;;;;;;;;5101816;27;20456;-79
2023/05/29 13:38:51;;;;;;;11.80;2.88;;;;;;;;;;5101164;27;20368;-84
2023/05/29 13:41:17;;;;;;;11.65;2.53;;;;;;;;;;5082921;27;20076;-84
2023/05/29 13:43:43;;;;;;;15.02;3.00;;;;;;;;;;5107058;27;20232;-84
2023/05/29 13:46:10;;;;;;;11.60;2.70;;;;;;;;;;5093964;28;20047;-78
2023/05/29 13:48:36;;;;;;;13.85;2.60;;;;;;;;;;5109074;28;20046;-77
2023/05/29 13:51:02;;;;;;;12.25;2.90;;;;;;;;;;5101855;28;20133;-83
2023/05/29 13:53:28;;;;;;;10.35;2.45;;;;;;;;;;5102962;28;20119;-84
2023/05/29 13:55:54;;;;;;;12.32;2.67;;;;;;;;;;5102276;28;20369;-84
2023/05/29 13:58:20;;;;;;;8.95;2.50;;;;;;;;;;5102791;28;20429;-84
2023/05/29 14:00:47;;;;;;;10.50;2.47;;;;;;;;;;5104461;28;20527;-84
2023/05/29 14:03:13;;;;;;;10.43;3.05;;;;;;;;;;5104330;28;20035;-84
2023/05/29 14:05:39;;;;;;;11.95;2.38;;;;;;;;;;5109071;28;20078;-84
2023/05/29 14:08:05;;;;;;;11.80;2.60;;;;;;;;;;5116676;27;20389;-84
2023/05/29 14:10:32;;;;;;;11.73;2.83;;;;;;;;;;5105183;28;20564;-84
2023/05/29 14:12:58;;;;;;;12.60;2.75;;;;;;;;;;5101462;28;20028;-84
2023/05/29 14:15:24;;;;;;;11.85;2.45;;;;;;;;;;5103436;28;20035;-84
2023/05/29 14:17:50;;;;;;;12.05;3.25;;;;;;;;;;5103773;28;20047;-83
2023/05/29 14:20:16;;;;;;;9.00;2.53;;;;;;;;;;5098788;28;20050;-78
2023/05/29 14:22:42;;;;;;;9.25;2.05;;;;;;;;;;5101149;28;20064;-83
2023/05/29 14:25:09;;;;;;;11.13;2.60;;;;;;;;;;5098452;28;20047;-84
2023/05/29 14:27:35;;;;;;;14.25;2.70;;;;;;;;;;5097451;27;20156;-84
2023/05/29 14:30:02;;;;;;;12.45;2.22;;;;;;;;;;5105618;27;20045;-84